createdAt,value
2023-02-16T00:01:49.349Z,73.27
2023-02-16T00:04:29.416Z,72.41
2023-02-16T00:06:57.038Z,72.80
2023-02-16T00:09:24.639Z,73.68
2023-02-16T00:12:11.287Z,73.59
2023-02-16T00:14:39.216Z,73.46
2023-02-16T00:17:06.592Z,73.12
2023-02-16T00:22:14.765Z,72.46
2023-02-16T00:24:41.332Z,72.97
2023-02-16T00:27:16.209Z,73.89
2023-02-16T00:29:44.788Z,73.60
2023-02-16T00:32:12.815Z,72.68
2023-02-16T00:38:47.540Z,72.16
2023-02-16T00:41:43.688Z,72.62
2023-02-16T00:44:29.271Z,73.17
2023-02-16T00:46:55.941Z,72.40
2023-02-16T00:49:22.773Z,72.09
2023-02-16T00:51:50.197Z,72.61
2023-02-16T00:54:27.517Z,72.42
2023-02-16T00:57:18.112Z,73.55
2023-02-16T00:59:46.712Z,74.76
2023-02-16T01:02:14.753Z,74.39
2023-02-16T01:05:47.853Z,74.63
2023-02-16T01:08:37.917Z,72.89
2023-02-16T01:11:07.469Z,72.84
2023-02-16T01:14:03.100Z,72.85
2023-02-16T01:16:38.801Z,72.27
2023-02-16T01:19:05.454Z,73.15
2023-02-16T01:21:32.409Z,73.68
2023-02-16T01:23:59.215Z,74.04
2023-02-16T01:26:26.159Z,74.70
2023-02-16T01:28:52.763Z,74.72
2023-02-16T01:31:19.464Z,75.05
2023-02-16T01:37:16.675Z,75.38
2023-02-16T01:39:43.302Z,74.74
2023-02-16T01:42:15.881Z,74.20
2023-02-16T01:44:52.710Z,73.47
2023-02-16T01:47:40.160Z,73.95
2023-02-16T01:50:19.886Z,73.51
2023-02-16T01:53:24.539Z,73.76
2023-02-16T01:55:58.837Z,73.27
2023-02-16T01:58:50.679Z,73.38
2023-02-16T02:01:35.914Z,74.44
2023-02-16T02:08:22.505Z,75.46
2023-02-16T02:11:27.494Z,76.00
2023-02-16T02:14:08.520Z,75.02
2023-02-16T02:16:35.552Z,74.79
2023-02-16T02:19:02.129Z,74.55
2023-02-16T02:24:22.760Z,74.98
2023-02-16T02:26:58.354Z,75.84
2023-02-16T02:29:55.766Z,74.25
2023-02-16T02:36:34.453Z,75.41
2023-02-16T02:39:12.758Z,75.39
2023-02-16T02:42:07.832Z,75.59
2023-02-16T02:45:18.755Z,75.58
2023-02-16T02:47:47.541Z,74.84
2023-02-16T02:53:43.752Z,72.15
2023-02-16T02:56:32.713Z,71.46
2023-02-16T02:59:23.463Z,71.07
2023-02-16T03:02:33.795Z,70.74
2023-02-16T03:05:27.643Z,70.89
2023-02-16T03:08:06.394Z,71.17
2023-02-16T03:10:55.222Z,71.41
2023-02-16T03:13:26.241Z,71.07
2023-02-16T03:15:56.005Z,72.05
2023-02-16T03:18:44.788Z,72.32
2023-02-16T03:21:33.114Z,71.99
2023-02-16T03:24:22.006Z,71.11
2023-02-16T03:27:09.442Z,71.72
2023-02-16T03:29:37.750Z,72.46
2023-02-16T03:32:32.351Z,72.84
2023-02-16T03:35:24.599Z,71.99
2023-02-16T03:37:51.196Z,71.53
2023-02-16T03:40:30.259Z,72.10
2023-02-16T03:43:00.257Z,71.95
2023-02-16T03:45:27.629Z,71.85
2023-02-16T03:47:55.082Z,70.94
2023-02-16T03:53:07.623Z,70.70
2023-02-16T03:55:36.950Z,72.33
2023-02-16T03:58:08.036Z,71.97
2023-02-16T04:00:35.986Z,71.50
2023-02-16T04:03:03.628Z,71.06
2023-02-16T04:06:04.417Z,71.71
2023-02-16T04:09:01.892Z,71.37
2023-02-16T04:11:53.335Z,71.36
2023-02-16T04:14:19.932Z,71.11
2023-02-16T04:16:46.553Z,70.70
2023-02-16T04:19:13.637Z,70.28
2023-02-16T04:21:40.281Z,69.96
2023-02-16T04:26:56.828Z,70.86
2023-02-16T04:29:23.437Z,70.83
2023-02-16T04:31:50.128Z,70.46
2023-02-16T04:34:35.846Z,71.03
2023-02-16T04:37:02.950Z,70.80
2023-02-16T04:39:29.522Z,71.09
2023-02-16T04:45:49.825Z,70.06
2023-02-16T04:48:16.440Z,69.45
2023-02-16T04:50:43.193Z,69.06
2023-02-16T04:53:09.744Z,69.85
2023-02-16T04:55:36.285Z,70.56
2023-02-16T04:58:02.842Z,70.62
2023-02-16T05:00:38.538Z,70.26
2023-02-16T05:03:05.115Z,70.41
2023-02-16T05:05:31.781Z,70.22
2023-02-16T05:07:58.344Z,71.04
2023-02-16T05:11:24.841Z,70.20
2023-02-16T05:14:41.773Z,69.46
2023-02-16T05:17:15.167Z,69.08
2023-02-16T05:19:43.420Z,70.41
2023-02-16T05:22:11.383Z,69.81
2023-02-16T05:24:38.316Z,70.32
2023-02-16T05:27:07.954Z,70.86
2023-02-16T05:29:58.309Z,70.00
2023-02-16T05:32:25.907Z,70.28
2023-02-16T05:34:52.462Z,69.92
2023-02-16T05:37:19.286Z,70.11
2023-02-16T05:40:35.659Z,70.32
2023-02-16T05:43:46.608Z,71.19
2023-02-16T05:46:13.226Z,70.64
2023-02-16T05:48:39.773Z,70.68
2023-02-16T05:51:06.533Z,69.90
2023-02-16T05:53:33.194Z,69.50
2023-02-16T05:55:59.756Z,70.12
2023-02-16T05:58:26.368Z,69.49
2023-02-16T06:00:53.535Z,68.96
2023-02-16T06:03:20.088Z,68.44
2023-02-16T06:05:46.789Z,68.06
2023-02-16T06:08:13.388Z,68.28
2023-02-16T06:10:40.084Z,68.23
2023-02-16T06:13:06.621Z,68.68
2023-02-16T06:15:33.486Z,70.03
2023-02-16T06:18:00.046Z,69.43
2023-02-16T06:20:26.705Z,69.07
2023-02-16T06:22:53.245Z,68.72
2023-02-16T06:25:20.310Z,68.37
2023-02-16T06:27:46.863Z,67.77
2023-02-16T06:30:13.724Z,67.48
2023-02-16T06:32:40.753Z,67.25
2023-02-16T06:35:07.684Z,67.27
2023-02-16T06:37:34.281Z,67.10
2023-02-16T06:40:00.850Z,67.34
2023-02-16T06:42:27.438Z,66.92
2023-02-16T06:44:54.039Z,66.76
2023-02-16T06:47:20.726Z,66.74
2023-02-16T06:49:47.292Z,66.72
2023-02-16T06:52:15.004Z,66.39
2023-02-16T06:54:41.584Z,65.97
2023-02-16T06:57:08.150Z,65.76
2023-02-16T06:59:36.775Z,65.99
2023-02-16T07:02:03.659Z,65.76
2023-02-16T07:04:30.230Z,65.59
2023-02-16T07:06:56.783Z,65.64
2023-02-16T07:09:23.514Z,65.57
2023-02-16T07:11:50.197Z,65.54
2023-02-16T07:14:16.836Z,65.51
2023-02-16T07:16:43.418Z,65.58
2023-02-16T07:19:10.029Z,66.15
2023-02-16T07:21:36.687Z,68.16
2023-02-16T07:24:03.800Z,68.55
2023-02-16T07:26:30.409Z,68.30
2023-02-16T07:28:57.012Z,68.71
2023-02-16T07:31:26.463Z,68.65
2023-02-16T07:33:53.347Z,68.89
2023-02-16T07:36:19.890Z,68.47
2023-02-16T07:38:46.438Z,69.01
2023-02-16T07:41:13.508Z,68.16
2023-02-16T07:43:42.765Z,68.23
2023-02-16T07:46:09.422Z,68.71
2023-02-16T07:48:36.090Z,70.96
2023-02-16T07:51:03.093Z,69.55
2023-02-16T07:53:29.890Z,69.77
2023-02-16T07:55:57.168Z,69.04
2023-02-16T07:58:29.728Z,68.45
2023-02-16T08:01:05.961Z,68.31
2023-02-16T08:03:32.758Z,70.54
2023-02-16T08:06:03.868Z,69.09
2023-02-16T08:08:31.072Z,68.96
2023-02-16T08:10:57.815Z,69.74
2023-02-16T08:13:24.782Z,69.24
2023-02-16T08:16:39.835Z,69.06
2023-02-16T08:19:19.461Z,70.17
2023-02-16T08:21:49.621Z,69.18
2023-02-16T08:24:16.266Z,68.63
2023-02-16T08:26:44.690Z,67.75
2023-02-16T08:29:14.865Z,67.19
2023-02-16T08:31:41.835Z,67.82
2023-02-16T08:34:11.233Z,68.59
2023-02-16T08:36:40.099Z,67.07
2023-02-16T08:39:16.381Z,67.62
2023-02-16T08:41:44.423Z,66.61
2023-02-16T08:44:10.976Z,68.39
2023-02-16T08:46:40.021Z,68.09
2023-02-16T08:49:08.093Z,66.09
2023-02-16T08:51:38.540Z,66.16
2023-02-16T08:54:08.697Z,65.03
2023-02-16T08:56:35.743Z,64.15
2023-02-16T08:59:02.512Z,65.82
2023-02-16T09:01:29.437Z,65.85
2023-02-16T09:03:56.268Z,65.86
2023-02-16T09:06:23.037Z,66.66
2023-02-16T09:08:54.675Z,67.14
2023-02-16T09:11:22.433Z,66.67
2023-02-16T09:13:50.504Z,67.06
2023-02-16T09:16:24.980Z,69.06
2023-02-16T09:18:53.006Z,67.39
2023-02-16T09:21:25.580Z,65.87
2023-02-16T09:23:55.840Z,67.54
2023-02-16T09:26:24.983Z,64.68
2023-02-16T09:28:53.346Z,65.70
2023-02-16T09:31:27.281Z,65.39
2023-02-16T09:33:56.255Z,65.97
2023-02-16T09:36:23.460Z,65.01
2023-02-16T09:38:51.405Z,65.42
2023-02-16T09:41:41.969Z,65.68
2023-02-16T09:44:33.050Z,66.08
2023-02-16T09:47:03.387Z,65.83
2023-02-16T09:49:38.960Z,66.07
2023-02-16T09:52:16.675Z,64.37
2023-02-16T09:54:53.138Z,64.67
2023-02-16T09:57:41.282Z,64.66
2023-02-16T10:00:33.257Z,64.75
2023-02-16T10:03:18.566Z,64.28
2023-02-16T10:06:10.705Z,64.20
2023-02-16T10:08:43.420Z,65.04
2023-02-16T10:11:40.677Z,65.02
2023-02-16T10:14:49.770Z,65.08
2023-02-16T10:17:37.738Z,65.39
2023-02-16T10:20:13.293Z,64.88
2023-02-16T10:22:49.112Z,65.11
2023-02-16T10:25:24.141Z,65.02
2023-02-16T10:28:16.533Z,64.45
2023-02-16T10:30:57.579Z,65.86
2023-02-16T10:33:43.657Z,64.67
2023-02-16T10:36:22.063Z,64.11
2023-02-16T10:39:02.103Z,64.00
2023-02-16T10:41:44.217Z,64.10
2023-02-16T10:44:22.443Z,64.00
2023-02-16T10:46:57.245Z,63.96
2023-02-16T10:49:25.752Z,63.74
2023-02-16T10:51:53.618Z,63.68
2023-02-16T10:54:25.554Z,63.77
2023-02-16T10:57:01.119Z,64.42
2023-02-16T10:59:44.258Z,63.25
2023-02-16T11:02:24.432Z,64.43
2023-02-16T11:04:52.970Z,63.61
2023-02-16T11:07:28.330Z,63.22
2023-02-16T11:09:58.450Z,64.38
2023-02-16T11:12:29.613Z,61.88
2023-02-16T11:15:16.565Z,61.74
2023-02-16T11:18:04.923Z,61.73
2023-02-16T11:20:50.299Z,61.45
2023-02-16T11:23:32.193Z,61.19
2023-02-16T11:26:06.304Z,61.44
2023-02-16T11:28:43.051Z,61.43
2023-02-16T11:31:09.607Z,61.25
2023-02-16T11:33:38.084Z,61.88
2023-02-16T11:36:19.957Z,62.49
2023-02-16T11:39:23.444Z,61.52
2023-02-16T11:41:57.379Z,61.33
2023-02-16T11:44:32.886Z,62.47
2023-02-16T11:47:07.984Z,62.33
2023-02-16T11:49:38.455Z,61.12
2023-02-16T11:52:21.034Z,61.69
2023-02-16T11:54:59.983Z,61.34
2023-02-16T11:57:32.087Z,59.52
2023-02-16T12:00:00.319Z,59.79
2023-02-16T12:02:45.133Z,58.46
2023-02-16T12:05:31.745Z,57.88
2023-02-16T12:08:24.804Z,58.81
2023-02-16T12:11:09.458Z,58.75
2023-02-16T12:13:36.275Z,56.97
2023-02-16T12:16:21.140Z,57.44
2023-02-16T12:19:12.367Z,56.13
2023-02-16T12:21:50.116Z,56.21
2023-02-16T12:24:46.684Z,55.15
2023-02-16T12:27:13.184Z,56.19
2023-02-16T12:30:08.350Z,57.27
2023-02-16T12:32:51.312Z,55.87
2023-02-16T12:35:48.952Z,54.93
2023-02-16T12:38:28.652Z,55.77
2023-02-16T12:41:14.543Z,56.04
2023-02-16T12:43:48.794Z,57.25
2023-02-16T12:46:29.342Z,56.96
2023-02-16T12:49:12.736Z,55.73
2023-02-16T12:51:47.244Z,56.33
2023-02-16T12:54:21.034Z,56.84
2023-02-16T12:56:54.662Z,57.45
2023-02-16T12:59:47.099Z,56.60
2023-02-16T13:02:44.575Z,57.33
2023-02-16T13:05:18.147Z,56.25
2023-02-16T13:07:56.631Z,55.82
2023-02-16T13:10:41.711Z,54.53
2023-02-16T13:13:17.771Z,54.54
2023-02-16T13:15:52.973Z,54.64
2023-02-16T13:18:28.516Z,53.90
2023-02-16T13:21:02.495Z,53.81
2023-02-16T13:23:50.666Z,52.65
2023-02-16T13:26:28.804Z,53.13
2023-02-16T13:28:58.541Z,53.50
2023-02-16T13:31:53.582Z,51.71
2023-02-16T13:34:36.320Z,53.58
2023-02-16T13:37:30.562Z,54.01
2023-02-16T13:40:12.437Z,54.13
2023-02-16T13:42:58.315Z,54.64
2023-02-16T13:45:32.053Z,55.14
2023-02-16T13:47:58.991Z,55.37
2023-02-16T13:50:31.435Z,55.14
2023-02-16T13:53:11.576Z,56.34
2023-02-16T13:55:40.239Z,55.98
2023-02-16T13:58:27.126Z,55.03
2023-02-16T14:00:53.957Z,55.75
2023-02-16T14:03:21.103Z,54.94
2023-02-16T14:05:53.010Z,54.37
2023-02-16T14:08:22.238Z,55.32
2023-02-16T14:10:55.033Z,55.93
2023-02-16T14:13:36.470Z,56.12
2023-02-16T14:16:25.276Z,54.86
2023-02-16T14:19:01.504Z,54.72
2023-02-16T14:21:44.780Z,54.19
2023-02-16T14:24:27.088Z,54.24
2023-02-16T14:26:55.609Z,53.67
2023-02-16T14:29:53.765Z,53.64
2023-02-16T14:32:30.792Z,53.91
2023-02-16T14:35:08.167Z,53.45
2023-02-16T14:37:39.498Z,53.75
2023-02-16T14:40:17.257Z,54.24
2023-02-16T14:42:51.398Z,53.85
2023-02-16T14:45:55.262Z,54.69
2023-02-16T14:48:43.589Z,54.37
2023-02-16T14:51:13.536Z,54.87
2023-02-16T14:53:49.277Z,54.09
2023-02-16T14:56:16.795Z,54.79
2023-02-16T14:59:01.984Z,54.71
2023-02-16T15:01:28.603Z,54.59
2023-02-16T15:03:58.082Z,54.44
2023-02-16T15:06:46.103Z,55.01
2023-02-16T15:09:23.449Z,55.23
2023-02-16T15:12:12.138Z,55.35
2023-02-16T15:14:49.091Z,55.14
2023-02-16T15:17:39.054Z,55.25
2023-02-16T15:20:19.767Z,55.87
2023-02-16T15:23:23.101Z,55.21
2023-02-16T15:26:19.950Z,55.58
2023-02-16T15:28:56.591Z,55.60
2023-02-16T15:31:33.354Z,55.38
2023-02-16T15:34:07.548Z,56.47
2023-02-16T15:36:37.331Z,56.46
2023-02-16T15:39:13.487Z,56.51
2023-02-16T15:41:45.978Z,56.29
2023-02-16T15:44:34.507Z,56.14
2023-02-16T15:47:16.573Z,56.98
2023-02-16T15:49:43.772Z,56.78
2023-02-16T15:52:21.576Z,56.97
2023-02-16T15:54:48.994Z,56.91
2023-02-16T15:57:32.161Z,56.89
2023-02-16T16:00:03.423Z,57.24
2023-02-16T16:02:41.441Z,57.07
2023-02-16T16:05:21.913Z,57.00
2023-02-16T16:07:49.348Z,57.22
2023-02-16T16:10:25.026Z,57.14
2023-02-16T16:12:56.345Z,57.45
2023-02-16T16:15:25.226Z,57.67
2023-02-16T16:17:53.661Z,58.00
2023-02-16T16:20:26.116Z,57.94
2023-02-16T16:23:21.374Z,58.10
2023-02-16T16:25:49.164Z,58.03
2023-02-16T16:28:27.642Z,58.33
2023-02-16T16:31:16.051Z,58.23
2023-02-16T16:34:01.455Z,58.55
2023-02-16T16:36:35.515Z,59.04
2023-02-16T16:39:25.422Z,59.11
2023-02-16T16:41:57.828Z,59.25
2023-02-16T16:44:45.462Z,59.35
2023-02-16T16:47:29.247Z,59.65
2023-02-16T16:50:06.902Z,59.27
2023-02-16T16:52:43.168Z,59.37
2023-02-16T16:55:21.698Z,59.75
2023-02-16T16:57:50.311Z,60.05
2023-02-16T17:00:18.356Z,60.40
2023-02-16T17:02:45.520Z,60.57
2023-02-16T17:05:12.298Z,60.57
2023-02-16T17:07:39.234Z,60.93
2023-02-16T17:10:06.527Z,60.58
2023-02-16T17:12:33.528Z,60.78
2023-02-16T17:15:01.809Z,61.11
2023-02-16T17:17:28.521Z,61.49
2023-02-16T17:19:55.132Z,61.77
2023-02-16T17:22:21.745Z,62.00
2023-02-16T17:24:48.442Z,62.23
2023-02-16T17:27:15.115Z,62.34
2023-02-16T17:29:43.121Z,61.98
2023-02-16T17:32:09.878Z,62.02
2023-02-16T17:34:36.502Z,62.15
2023-02-16T17:37:09.286Z,62.10
2023-02-16T17:39:35.965Z,62.13
2023-02-16T17:42:02.631Z,62.30
2023-02-16T17:44:29.302Z,62.56
2023-02-16T17:46:56.256Z,63.92
2023-02-16T17:49:22.827Z,63.64
2023-02-16T17:51:49.413Z,63.60
2023-02-16T17:54:16.135Z,64.25
2023-02-16T17:56:48.286Z,63.99
2023-02-16T17:59:15.511Z,64.23
2023-02-16T18:01:45.400Z,64.15
2023-02-16T18:04:12.044Z,64.09
2023-02-16T18:06:38.655Z,63.98
2023-02-16T18:09:05.278Z,64.21
2023-02-16T18:11:31.886Z,64.63
2023-02-16T18:13:58.494Z,65.24
2023-02-16T18:16:26.840Z,66.02
2023-02-16T18:18:53.635Z,66.46
2023-02-16T18:21:25.793Z,66.55
2023-02-16T18:23:52.361Z,66.95
2023-02-16T18:26:19.029Z,67.00
2023-02-16T18:28:45.703Z,67.58
2023-02-16T18:31:13.059Z,67.69
2023-02-16T18:33:39.876Z,68.05
2023-02-16T18:36:07.090Z,67.51
2023-02-16T18:38:33.897Z,67.70
2023-02-16T18:41:00.488Z,67.69
2023-02-16T18:43:27.099Z,67.18
2023-02-16T18:45:53.718Z,66.30
2023-02-16T18:48:20.392Z,65.89
2023-02-16T18:50:46.992Z,66.29
2023-02-16T18:53:16.197Z,67.67
2023-02-16T18:55:43.153Z,67.71
2023-02-16T18:58:11.586Z,68.56
2023-02-16T19:00:41.567Z,68.58
2023-02-16T19:03:08.639Z,68.43
2023-02-16T19:05:35.270Z,69.04
2023-02-16T19:08:01.883Z,68.48
2023-02-16T19:10:28.479Z,69.11
2023-02-16T19:12:55.033Z,69.14
2023-02-16T19:15:21.846Z,69.18
2023-02-16T19:17:50.846Z,69.61
2023-02-16T19:20:18.648Z,69.62
2023-02-16T19:22:50.553Z,69.36
2023-02-16T19:25:17.233Z,69.92
2023-02-16T19:27:47.128Z,69.75
2023-02-16T19:30:13.798Z,69.50
2023-02-16T19:32:41.180Z,69.39
2023-02-16T19:35:11.191Z,69.28
2023-02-16T19:37:37.868Z,69.42
2023-02-16T19:40:08.727Z,69.51
2023-02-16T19:42:35.763Z,70.48
2023-02-16T19:45:02.474Z,70.10
2023-02-16T19:47:29.134Z,70.38
2023-02-16T19:49:55.836Z,71.07
2023-02-16T19:52:22.542Z,71.52
2023-02-16T19:54:49.495Z,72.12
2023-02-16T19:57:16.159Z,71.18
2023-02-16T19:59:42.852Z,70.74
2023-02-16T20:02:13.089Z,70.14
2023-02-16T20:04:39.858Z,70.35
2023-02-16T20:07:08.232Z,70.20
2023-02-16T20:09:36.134Z,70.29
2023-02-16T20:12:03.440Z,69.89
2023-02-16T20:14:30.004Z,70.05
2023-02-16T20:16:56.632Z,70.19
2023-02-16T20:19:24.382Z,71.06
2023-02-16T20:21:50.986Z,70.11
2023-02-16T20:24:18.088Z,69.36
2023-02-16T20:26:49.003Z,69.12
2023-02-16T20:29:18.628Z,68.50
2023-02-16T20:31:59.954Z,67.81
2023-02-16T20:34:27.549Z,67.83
2023-02-16T20:37:00.237Z,67.53
2023-02-16T20:39:26.849Z,66.73
2023-02-16T20:41:53.556Z,66.86
2023-02-16T20:44:20.300Z,66.47
2023-02-16T20:46:46.888Z,66.19
2023-02-16T20:49:13.683Z,66.25
2023-02-16T20:51:41.338Z,66.22
2023-02-16T20:54:14.245Z,66.37
2023-02-16T20:56:40.840Z,66.78
2023-02-16T20:59:09.958Z,67.08
2023-02-16T21:01:49.517Z,66.88
2023-02-16T21:04:18.815Z,67.50
2023-02-16T21:06:45.406Z,67.63
2023-02-16T21:09:12.411Z,68.22
2023-02-16T21:11:40.049Z,68.64
2023-02-16T21:14:08.512Z,69.78
2023-02-16T21:16:35.372Z,69.71
2023-02-16T21:19:04.090Z,69.03
2023-02-16T21:21:32.086Z,68.86
2023-02-16T21:23:58.896Z,68.77
2023-02-16T21:26:25.721Z,68.67
2023-02-16T21:28:53.225Z,68.26
2023-02-16T21:31:22.430Z,67.87
2023-02-16T21:33:49.867Z,67.55
2023-02-16T21:36:23.413Z,66.80
2023-02-16T21:38:49.994Z,66.48
2023-02-16T21:41:25.498Z,66.42
2023-02-16T21:44:04.604Z,66.41
2023-02-16T21:46:39.854Z,66.67
2023-02-16T21:49:17.512Z,66.78
2023-02-16T21:51:45.127Z,66.26
2023-02-16T21:54:15.328Z,66.29
2023-02-16T21:56:44.593Z,65.26
2023-02-16T21:59:29.266Z,65.09
2023-02-16T22:04:48.993Z,64.66
2023-02-16T22:07:15.551Z,64.07
2023-02-16T22:09:42.576Z,63.96
2023-02-16T22:12:09.213Z,65.09
2023-02-16T22:14:36.179Z,65.69
2023-02-16T22:17:04.297Z,65.21
2023-02-16T22:19:30.853Z,64.89
2023-02-16T22:21:57.761Z,64.38
2023-02-16T22:24:24.364Z,65.31
2023-02-16T22:26:51.545Z,65.69
2023-02-16T22:29:46.384Z,66.35
2023-02-16T22:32:37.066Z,67.42
2023-02-16T22:35:12.920Z,67.53
2023-02-16T22:37:39.504Z,68.27
2023-02-16T22:40:06.689Z,68.35
2023-02-16T22:42:33.340Z,68.71
2023-02-16T22:44:59.916Z,68.87
2023-02-16T22:47:26.467Z,68.91
2023-02-16T22:50:08.521Z,68.71
2023-02-16T22:52:37.174Z,68.65
2023-02-16T22:55:05.672Z,68.65
2023-02-16T22:57:36.875Z,68.87
2023-02-16T23:00:25.009Z,68.59
2023-02-16T23:03:12.974Z,68.24
2023-02-16T23:05:41.395Z,68.28
2023-02-16T23:08:09.407Z,68.30
2023-02-16T23:10:37.797Z,68.72
2023-02-16T23:13:06.429Z,67.82
2023-02-16T23:15:34.917Z,67.70
2023-02-16T23:18:10.713Z,68.71
2023-02-16T23:20:37.394Z,68.69
2023-02-16T23:23:05.529Z,68.68
2023-02-16T23:25:35.183Z,69.27
2023-02-16T23:28:11.638Z,69.15
2023-02-16T23:30:43.629Z,68.83
2023-02-16T23:33:28.574Z,68.27
2023-02-16T23:35:55.851Z,68.45
2023-02-16T23:38:22.817Z,68.88
2023-02-16T23:40:56.732Z,69.09
2023-02-16T23:43:23.670Z,68.99
2023-02-16T23:45:50.264Z,68.23
2023-02-16T23:48:23.362Z,68.49
2023-02-16T23:50:50.746Z,68.84
2023-02-16T23:53:18.362Z,68.42
2023-02-16T23:55:45.156Z,68.62
